sensor_id;sensor_type;location;lat;lon;timestamp;temperature;humidity
10468;DHT22;5281;48.878;9.394;2022-09-17T00:01:23;11.70;99.90
10468;DHT22;5281;48.878;9.394;2022-09-17T00:03:52;11.70;99.90
10468;DHT22;5281;48.878;9.394;2022-09-17T00:06:20;11.70;99.90
10468;DHT22;5281;48.878;9.394;2022-09-17T00:08:49;11.70;99.90
10468;DHT22;5281;48.878;9.394;2022-09-17T00:11:18;11.70;99.90
10468;DHT22;5281;48.878;9.394;2022-09-17T00:13:46;11.70;99.90
10468;DHT22;5281;48.878;9.394;2022-09-17T00:16:21;11.60;99.90
10468;DHT22;5281;48.878;9.394;2022-09-17T00:18:48;11.60;99.90
10468;DHT22;5281;48.878;9.394;2022-09-17T00:21:16;11.60;99.90
10468;DHT22;5281;48.878;9.394;2022-09-17T00:23:43;11.70;99.90
10468;DHT22;5281;48.878;9.394;2022-09-17T00:26:11;11.80;99.90
10468;DHT22;5281;48.878;9.394;2022-09-17T00:28:38;11.90;99.90
10468;DHT22;5281;48.878;9.394;2022-09-17T00:31:06;12.00;99.90
10468;DHT22;5281;48.878;9.394;2022-09-17T00:33:34;12.00;99.90
10468;DHT22;5281;48.878;9.394;2022-09-17T00:36:02;12.10;99.90
10468;DHT22;5281;48.878;9.394;2022-09-17T00:38:29;12.20;99.90
10468;DHT22;5281;48.878;9.394;2022-09-17T00:40:56;12.30;99.90
10468;DHT22;5281;48.878;9.394;2022-09-17T00:43:37;12.40;99.90
10468;DHT22;5281;48.878;9.394;2022-09-17T00:46:09;12.40;99.90
10468;DHT22;5281;48.878;9.394;2022-09-17T00:48:37;12.50;99.90
10468;DHT22;5281;48.878;9.394;2022-09-17T00:51:05;12.60;99.90
10468;DHT22;5281;48.878;9.394;2022-09-17T00:53:34;12.60;99.90
10468;DHT22;5281;48.878;9.394;2022-09-17T00:56:05;12.50;99.90
10468;DHT22;5281;48.878;9.394;2022-09-17T00:58:36;12.60;99.90
10468;DHT22;5281;48.878;9.394;2022-09-17T01:01:04;12.60;99.90
10468;DHT22;5281;48.878;9.394;2022-09-17T01:03:31;12.70;99.90
10468;DHT22;5281;48.878;9.394;2022-09-17T01:06:08;12.80;99.90
10468;DHT22;5281;48.878;9.394;2022-09-17T01:08:47;12.70;99.90
10468;DHT22;5281;48.878;9.394;2022-09-17T01:11:39;12.70;99.90
10468;DHT22;5281;48.878;9.394;2022-09-17T01:14:22;12.80;99.90
10468;DHT22;5281;48.878;9.394;2022-09-17T01:16:56;12.70;99.90
10468;DHT22;5281;48.878;9.394;2022-09-17T01:19:56;12.70;99.90
10468;DHT22;5281;48.878;9.394;2022-09-17T01:22:33;12.60;99.90
10468;DHT22;5281;48.878;9.394;2022-09-17T01:25:18;12.50;99.90
10468;DHT22;5281;48.878;9.394;2022-09-17T01:33:55;12.40;99.90
10468;DHT22;5281;48.878;9.394;2022-09-17T01:36:35;12.40;99.90
10468;DHT22;5281;48.878;9.394;2022-09-17T01:39:11;12.50;99.90
10468;DHT22;5281;48.878;9.394;2022-09-17T01:41:48;12.50;99.90
10468;DHT22;5281;48.878;9.394;2022-09-17T01:44:21;12.40;99.90
10468;DHT22;5281;48.878;9.394;2022-09-17T01:46:52;12.40;99.90
10468;DHT22;5281;48.878;9.394;2022-09-17T01:49:23;12.30;99.90
10468;DHT22;5281;48.878;9.394;2022-09-17T01:51:51;12.40;99.90
10468;DHT22;5281;48.878;9.394;2022-09-17T01:54:22;12.40;99.90
10468;DHT22;5281;48.878;9.394;2022-09-17T01:56:55;12.50;99.90
10468;DHT22;5281;48.878;9.394;2022-09-17T01:59:26;12.50;99.90
10468;DHT22;5281;48.878;9.394;2022-09-17T02:01:58;12.30;99.90
10468;DHT22;5281;48.878;9.394;2022-09-17T02:04:30;12.20;99.90
10468;DHT22;5281;48.878;9.394;2022-09-17T02:07:02;12.20;99.90
10468;DHT22;5281;48.878;9.394;2022-09-17T02:09:34;12.10;99.90
10468;DHT22;5281;48.878;9.394;2022-09-17T02:12:05;12.00;99.90
10468;DHT22;5281;48.878;9.394;2022-09-17T02:14:35;11.90;99.90
10468;DHT22;5281;48.878;9.394;2022-09-17T02:17:08;11.80;99.90
10468;DHT22;5281;48.878;9.394;2022-09-17T02:19:38;11.80;99.90
10468;DHT22;5281;48.878;9.394;2022-09-17T02:22:13;11.70;99.90
10468;DHT22;5281;48.878;9.394;2022-09-17T02:24:46;11.60;99.90
10468;DHT22;5281;48.878;9.394;2022-09-17T02:27:19;11.60;99.90
10468;DHT22;5281;48.878;9.394;2022-09-17T02:29:48;11.50;99.90
10468;DHT22;5281;48.878;9.394;2022-09-17T02:32:15;11.50;99.90
10468;DHT22;5281;48.878;9.394;2022-09-17T02:34:43;11.40;99.90
10468;DHT22;5281;48.878;9.394;2022-09-17T02:37:10;11.30;99.90
10468;DHT22;5281;48.878;9.394;2022-09-17T02:39:37;11.30;99.90
10468;DHT22;5281;48.878;9.394;2022-09-17T02:42:11;11.30;99.90
10468;DHT22;5281;48.878;9.394;2022-09-17T02:44:48;11.30;99.90
10468;DHT22;5281;48.878;9.394;2022-09-17T02:50:29;11.40;99.90
10468;DHT22;5281;48.878;9.394;2022-09-17T02:56:00;11.40;99.90
10468;DHT22;5281;48.878;9.394;2022-09-17T02:58:32;11.40;99.90
10468;DHT22;5281;48.878;9.394;2022-09-17T03:01:06;11.40;99.90
10468;DHT22;5281;48.878;9.394;2022-09-17T03:03:37;11.40;99.90
10468;DHT22;5281;48.878;9.394;2022-09-17T03:06:06;11.40;99.90
10468;DHT22;5281;48.878;9.394;2022-09-17T03:08:36;11.50;99.90
10468;DHT22;5281;48.878;9.394;2022-09-17T03:11:04;11.60;99.90
10468;DHT22;5281;48.878;9.394;2022-09-17T03:13:34;11.60;99.90
10468;DHT22;5281;48.878;9.394;2022-09-17T03:16:01;11.70;99.90
10468;DHT22;5281;48.878;9.394;2022-09-17T03:18:28;11.70;99.90
10468;DHT22;5281;48.878;9.394;2022-09-17T03:20:54;11.80;99.90
10468;DHT22;5281;48.878;9.394;2022-09-17T03:23:22;11.80;99.90
10468;DHT22;5281;48.878;9.394;2022-09-17T03:25:49;11.90;99.90
10468;DHT22;5281;48.878;9.394;2022-09-17T03:28:16;11.90;99.90
10468;DHT22;5281;48.878;9.394;2022-09-17T03:30:43;11.90;99.90
10468;DHT22;5281;48.878;9.394;2022-09-17T03:33:10;12.00;99.90
10468;DHT22;5281;48.878;9.394;2022-09-17T03:35:37;12.10;99.90
10468;DHT22;5281;48.878;9.394;2022-09-17T03:38:07;12.10;99.90
10468;DHT22;5281;48.878;9.394;2022-09-17T03:40:35;12.20;99.90
10468;DHT22;5281;48.878;9.394;2022-09-17T03:43:02;12.20;99.90
10468;DHT22;5281;48.878;9.394;2022-09-17T03:45:29;12.20;99.90
10468;DHT22;5281;48.878;9.394;2022-09-17T03:47:55;12.20;99.90
10468;DHT22;5281;48.878;9.394;2022-09-17T03:50:22;12.10;99.90
10468;DHT22;5281;48.878;9.394;2022-09-17T03:52:49;12.10;99.90
10468;DHT22;5281;48.878;9.394;2022-09-17T03:55:16;12.20;99.90
10468;DHT22;5281;48.878;9.394;2022-09-17T03:57:44;12.10;99.90
10468;DHT22;5281;48.878;9.394;2022-09-17T04:00:11;12.00;99.90
10468;DHT22;5281;48.878;9.394;2022-09-17T04:02:41;12.00;99.90
10468;DHT22;5281;48.878;9.394;2022-09-17T04:05:08;12.10;99.90
10468;DHT22;5281;48.878;9.394;2022-09-17T04:07:35;12.10;99.90
10468;DHT22;5281;48.878;9.394;2022-09-17T04:10:02;12.10;99.90
10468;DHT22;5281;48.878;9.394;2022-09-17T04:12:30;12.10;99.90
10468;DHT22;5281;48.878;9.394;2022-09-17T04:14:58;12.00;99.90
10468;DHT22;5281;48.878;9.394;2022-09-17T04:17:24;12.00;99.90
10468;DHT22;5281;48.878;9.394;2022-09-17T04:19:51;12.10;99.90
10468;DHT22;5281;48.878;9.394;2022-09-17T04:22:18;12.10;99.90
10468;DHT22;5281;48.878;9.394;2022-09-17T04:24:45;12.10;99.90
10468;DHT22;5281;48.878;9.394;2022-09-17T04:27:12;12.20;99.90
10468;DHT22;5281;48.878;9.394;2022-09-17T04:29:38;12.20;99.90
10468;DHT22;5281;48.878;9.394;2022-09-17T04:32:06;12.30;99.90
10468;DHT22;5281;48.878;9.394;2022-09-17T04:34:33;12.30;99.90
10468;DHT22;5281;48.878;9.394;2022-09-17T04:37:00;12.40;99.90
10468;DHT22;5281;48.878;9.394;2022-09-17T04:39:27;12.40;99.90
10468;DHT22;5281;48.878;9.394;2022-09-17T04:41:54;12.40;99.90
10468;DHT22;5281;48.878;9.394;2022-09-17T04:44:20;12.40;99.90
10468;DHT22;5281;48.878;9.394;2022-09-17T04:46:47;12.40;99.90
10468;DHT22;5281;48.878;9.394;2022-09-17T04:49:15;12.30;99.90
10468;DHT22;5281;48.878;9.394;2022-09-17T04:51:42;12.20;99.90
10468;DHT22;5281;48.878;9.394;2022-09-17T04:54:08;12.20;99.90
10468;DHT22;5281;48.878;9.394;2022-09-17T04:56:35;12.20;99.90
10468;DHT22;5281;48.878;9.394;2022-09-17T04:59:02;12.00;99.90
10468;DHT22;5281;48.878;9.394;2022-09-17T05:01:28;12.00;99.90
10468;DHT22;5281;48.878;9.394;2022-09-17T05:03:55;11.80;99.90
10468;DHT22;5281;48.878;9.394;2022-09-17T05:06:23;11.80;99.90
10468;DHT22;5281;48.878;9.394;2022-09-17T05:08:50;11.80;99.90
10468;DHT22;5281;48.878;9.394;2022-09-17T05:11:16;11.70;99.90
10468;DHT22;5281;48.878;9.394;2022-09-17T05:13:43;11.60;99.90
10468;DHT22;5281;48.878;9.394;2022-09-17T05:16:10;11.60;99.90
10468;DHT22;5281;48.878;9.394;2022-09-17T05:18:37;11.50;99.90
10468;DHT22;5281;48.878;9.394;2022-09-17T05:21:04;11.40;99.90
10468;DHT22;5281;48.878;9.394;2022-09-17T05:23:32;11.40;99.90
10468;DHT22;5281;48.878;9.394;2022-09-17T05:26:00;11.40;99.90
10468;DHT22;5281;48.878;9.394;2022-09-17T05:28:27;11.50;99.90
10468;DHT22;5281;48.878;9.394;2022-09-17T05:30:56;11.70;99.90
10468;DHT22;5281;48.878;9.394;2022-09-17T05:33:23;11.70;99.90
10468;DHT22;5281;48.878;9.394;2022-09-17T05:35:51;11.80;99.90
10468;DHT22;5281;48.878;9.394;2022-09-17T05:38:18;12.00;99.90
10468;DHT22;5281;48.878;9.394;2022-09-17T05:40:46;12.10;99.90
10468;DHT22;5281;48.878;9.394;2022-09-17T05:43:14;12.20;99.90
10468;DHT22;5281;48.878;9.394;2022-09-17T05:45:41;12.30;99.90
10468;DHT22;5281;48.878;9.394;2022-09-17T05:48:10;12.30;99.90
10468;DHT22;5281;48.878;9.394;2022-09-17T05:50:37;12.50;99.90
10468;DHT22;5281;48.878;9.394;2022-09-17T05:53:06;12.60;99.90
10468;DHT22;5281;48.878;9.394;2022-09-17T05:55:34;12.70;99.90
10468;DHT22;5281;48.878;9.394;2022-09-17T05:58:08;12.80;99.90
10468;DHT22;5281;48.878;9.394;2022-09-17T06:00:35;12.80;99.90
10468;DHT22;5281;48.878;9.394;2022-09-17T06:03:02;12.90;99.90
10468;DHT22;5281;48.878;9.394;2022-09-17T06:05:29;13.10;99.90
10468;DHT22;5281;48.878;9.394;2022-09-17T06:07:56;13.20;99.90
10468;DHT22;5281;48.878;9.394;2022-09-17T06:10:23;13.20;99.90
10468;DHT22;5281;48.878;9.394;2022-09-17T06:12:54;13.10;99.90
10468;DHT22;5281;48.878;9.394;2022-09-17T06:15:23;13.10;99.90
10468;DHT22;5281;48.878;9.394;2022-09-17T06:17:50;13.20;99.90
10468;DHT22;5281;48.878;9.394;2022-09-17T06:20:19;13.20;99.90
10468;DHT22;5281;48.878;9.394;2022-09-17T06:22:46;13.20;99.90
10468;DHT22;5281;48.878;9.394;2022-09-17T06:25:13;13.20;99.90
10468;DHT22;5281;48.878;9.394;2022-09-17T06:27:40;13.20;99.90
10468;DHT22;5281;48.878;9.394;2022-09-17T06:30:08;13.20;99.90
10468;DHT22;5281;48.878;9.394;2022-09-17T06:32:36;13.20;99.90
10468;DHT22;5281;48.878;9.394;2022-09-17T06:35:03;13.10;99.90
10468;DHT22;5281;48.878;9.394;2022-09-17T06:37:31;13.00;99.90
10468;DHT22;5281;48.878;9.394;2022-09-17T06:40:00;13.10;99.90
10468;DHT22;5281;48.878;9.394;2022-09-17T06:42:28;13.20;99.90
10468;DHT22;5281;48.878;9.394;2022-09-17T06:44:55;13.20;99.90
10468;DHT22;5281;48.878;9.394;2022-09-17T06:47:23;13.10;99.90
10468;DHT22;5281;48.878;9.394;2022-09-17T06:49:51;13.20;99.90
10468;DHT22;5281;48.878;9.394;2022-09-17T06:52:21;13.20;99.90
10468;DHT22;5281;48.878;9.394;2022-09-17T06:54:48;13.30;99.90
10468;DHT22;5281;48.878;9.394;2022-09-17T06:57:15;13.40;99.90
10468;DHT22;5281;48.878;9.394;2022-09-17T06:59:42;13.50;99.90
10468;DHT22;5281;48.878;9.394;2022-09-17T07:02:09;13.60;99.90
10468;DHT22;5281;48.878;9.394;2022-09-17T07:04:36;13.60;99.90
10468;DHT22;5281;48.878;9.394;2022-09-17T07:07:04;13.60;99.90
10468;DHT22;5281;48.878;9.394;2022-09-17T07:09:31;13.50;99.90
10468;DHT22;5281;48.878;9.394;2022-09-17T07:11:58;13.50;99.90
10468;DHT22;5281;48.878;9.394;2022-09-17T07:14:25;13.40;99.90
10468;DHT22;5281;48.878;9.394;2022-09-17T07:16:52;13.30;99.90
10468;DHT22;5281;48.878;9.394;2022-09-17T07:19:19;13.30;99.90
10468;DHT22;5281;48.878;9.394;2022-09-17T07:21:47;13.20;99.90
10468;DHT22;5281;48.878;9.394;2022-09-17T07:24:16;13.10;99.90
10468;DHT22;5281;48.878;9.394;2022-09-17T07:26:42;13.00;99.90
10468;DHT22;5281;48.878;9.394;2022-09-17T07:29:09;12.90;99.90
10468;DHT22;5281;48.878;9.394;2022-09-17T07:31:36;12.90;99.90
10468;DHT22;5281;48.878;9.394;2022-09-17T07:34:03;12.90;99.90
10468;DHT22;5281;48.878;9.394;2022-09-17T07:36:30;13.00;99.90
10468;DHT22;5281;48.878;9.394;2022-09-17T07:38:57;13.10;99.90
10468;DHT22;5281;48.878;9.394;2022-09-17T07:41:25;13.10;99.90
10468;DHT22;5281;48.878;9.394;2022-09-17T07:43:52;13.20;99.90
10468;DHT22;5281;48.878;9.394;2022-09-17T07:46:20;13.30;99.90
10468;DHT22;5281;48.878;9.394;2022-09-17T07:48:48;13.40;99.90
10468;DHT22;5281;48.878;9.394;2022-09-17T07:51:15;13.40;99.90
10468;DHT22;5281;48.878;9.394;2022-09-17T07:53:43;13.30;99.90
10468;DHT22;5281;48.878;9.394;2022-09-17T07:56:14;13.30;99.90
10468;DHT22;5281;48.878;9.394;2022-09-17T07:58:46;13.30;99.90
10468;DHT22;5281;48.878;9.394;2022-09-17T08:01:20;13.30;99.90
10468;DHT22;5281;48.878;9.394;2022-09-17T08:03:53;13.30;99.90
10468;DHT22;5281;48.878;9.394;2022-09-17T08:06:26;13.30;99.90
10468;DHT22;5281;48.878;9.394;2022-09-17T08:08:56;13.40;99.90
10468;DHT22;5281;48.878;9.394;2022-09-17T08:11:28;13.50;99.90
10468;DHT22;5281;48.878;9.394;2022-09-17T08:13:58;13.50;99.90
10468;DHT22;5281;48.878;9.394;2022-09-17T08:16:25;13.40;99.90
10468;DHT22;5281;48.878;9.394;2022-09-17T08:19:00;13.50;99.90
10468;DHT22;5281;48.878;9.394;2022-09-17T08:21:28;13.50;99.90
10468;DHT22;5281;48.878;9.394;2022-09-17T08:23:56;13.60;99.90
10468;DHT22;5281;48.878;9.394;2022-09-17T08:26:27;13.80;99.90
10468;DHT22;5281;48.878;9.394;2022-09-17T08:29:05;13.90;99.90
10468;DHT22;5281;48.878;9.394;2022-09-17T08:31:35;14.10;99.90
10468;DHT22;5281;48.878;9.394;2022-09-17T08:34:09;14.20;99.90
10468;DHT22;5281;48.878;9.394;2022-09-17T08:36:36;14.30;99.90
10468;DHT22;5281;48.878;9.394;2022-09-17T08:39:03;14.40;99.90
10468;DHT22;5281;48.878;9.394;2022-09-17T08:41:40;14.40;99.90
10468;DHT22;5281;48.878;9.394;2022-09-17T08:44:15;14.40;99.90
10468;DHT22;5281;48.878;9.394;2022-09-17T08:46:49;14.60;99.90
10468;DHT22;5281;48.878;9.394;2022-09-17T08:49:24;15.00;99.90
10468;DHT22;5281;48.878;9.394;2022-09-17T08:54:59;15.70;99.90
10468;DHT22;5281;48.878;9.394;2022-09-17T08:57:35;15.90;99.90
10468;DHT22;5281;48.878;9.394;2022-09-17T09:00:10;16.20;99.90
10468;DHT22;5281;48.878;9.394;2022-09-17T09:02:49;16.60;99.90
10468;DHT22;5281;48.878;9.394;2022-09-17T09:05:25;16.80;99.90
10468;DHT22;5281;48.878;9.394;2022-09-17T09:07:59;17.10;99.90
10468;DHT22;5281;48.878;9.394;2022-09-17T09:10:30;17.20;99.90
10468;DHT22;5281;48.878;9.394;2022-09-17T09:13:03;17.00;99.90
10468;DHT22;5281;48.878;9.394;2022-09-17T09:15:36;16.90;99.90
10468;DHT22;5281;48.878;9.394;2022-09-17T09:18:13;17.00;99.90
10468;DHT22;5281;48.878;9.394;2022-09-17T09:20:56;17.20;99.90
10468;DHT22;5281;48.878;9.394;2022-09-17T09:23:34;17.50;99.90
10468;DHT22;5281;48.878;9.394;2022-09-17T09:26:13;17.60;99.90
10468;DHT22;5281;48.878;9.394;2022-09-17T09:28:50;17.70;99.90
10468;DHT22;5281;48.878;9.394;2022-09-17T09:31:46;17.40;99.90
10468;DHT22;5281;48.878;9.394;2022-09-17T09:34:21;17.10;99.90
10468;DHT22;5281;48.878;9.394;2022-09-17T09:36:50;17.00;99.90
10468;DHT22;5281;48.878;9.394;2022-09-17T09:39:20;17.30;99.90
10468;DHT22;5281;48.878;9.394;2022-09-17T09:41:54;17.60;99.90
10468;DHT22;5281;48.878;9.394;2022-09-17T09:44:26;17.50;99.90
10468;DHT22;5281;48.878;9.394;2022-09-17T09:47:15;17.20;99.90
10468;DHT22;5281;48.878;9.394;2022-09-17T09:50:01;17.00;99.90
10468;DHT22;5281;48.878;9.394;2022-09-17T09:52:43;16.90;99.90
10468;DHT22;5281;48.878;9.394;2022-09-17T09:55:28;16.90;99.90
10468;DHT22;5281;48.878;9.394;2022-09-17T09:58:12;17.00;99.90
10468;DHT22;5281;48.878;9.394;2022-09-17T10:00:42;17.30;99.90
10468;DHT22;5281;48.878;9.394;2022-09-17T10:03:14;17.10;99.90
10468;DHT22;5281;48.878;9.394;2022-09-17T10:06:00;16.90;99.90
10468;DHT22;5281;48.878;9.394;2022-09-17T10:08:30;16.70;99.90
10468;DHT22;5281;48.878;9.394;2022-09-17T10:11:02;16.50;99.90
10468;DHT22;5281;48.878;9.394;2022-09-17T10:13:38;16.30;99.90
10468;DHT22;5281;48.878;9.394;2022-09-17T10:16:15;16.40;99.90
10468;DHT22;5281;48.878;9.394;2022-09-17T10:18:44;16.30;99.90
10468;DHT22;5281;48.878;9.394;2022-09-17T10:21:18;16.50;99.90
10468;DHT22;5281;48.878;9.394;2022-09-17T10:23:46;16.60;99.90
10468;DHT22;5281;48.878;9.394;2022-09-17T10:26:21;16.50;99.90
10468;DHT22;5281;48.878;9.394;2022-09-17T10:28:50;16.60;99.90
10468;DHT22;5281;48.878;9.394;2022-09-17T10:31:17;16.90;99.90
10468;DHT22;5281;48.878;9.394;2022-09-17T10:33:55;17.40;99.90
10468;DHT22;5281;48.878;9.394;2022-09-17T10:36:37;17.90;99.90
10468;DHT22;5281;48.878;9.394;2022-09-17T10:39:30;18.10;99.90
10468;DHT22;5281;48.878;9.394;2022-09-17T10:42:00;18.20;99.90
10468;DHT22;5281;48.878;9.394;2022-09-17T10:44:29;18.30;99.90
10468;DHT22;5281;48.878;9.394;2022-09-17T10:47:02;18.40;99.90
10468;DHT22;5281;48.878;9.394;2022-09-17T10:49:37;18.40;99.90
10468;DHT22;5281;48.878;9.394;2022-09-17T10:52:09;18.70;99.90
10468;DHT22;5281;48.878;9.394;2022-09-17T10:55:12;18.70;99.90
10468;DHT22;5281;48.878;9.394;2022-09-17T10:58:00;18.80;99.90
10468;DHT22;5281;48.878;9.394;2022-09-17T11:00:34;19.00;99.90
10468;DHT22;5281;48.878;9.394;2022-09-17T11:03:36;19.10;99.90
10468;DHT22;5281;48.878;9.394;2022-09-17T11:06:32;19.40;99.90
10468;DHT22;5281;48.878;9.394;2022-09-17T11:09:09;19.40;99.90
10468;DHT22;5281;48.878;9.394;2022-09-17T11:11:52;19.40;99.90
10468;DHT22;5281;48.878;9.394;2022-09-17T11:14:35;19.40;99.90
10468;DHT22;5281;48.878;9.394;2022-09-17T11:17:12;19.50;99.90
10468;DHT22;5281;48.878;9.394;2022-09-17T11:19:49;19.80;99.90
10468;DHT22;5281;48.878;9.394;2022-09-17T11:22:28;20.10;99.90
10468;DHT22;5281;48.878;9.394;2022-09-17T11:25:21;19.90;99.90
10468;DHT22;5281;48.878;9.394;2022-09-17T11:27:59;19.80;99.90
10468;DHT22;5281;48.878;9.394;2022-09-17T11:30:32;19.90;99.90
10468;DHT22;5281;48.878;9.394;2022-09-17T11:33:24;19.90;99.90
10468;DHT22;5281;48.878;9.394;2022-09-17T11:35:55;19.80;99.90
10468;DHT22;5281;48.878;9.394;2022-09-17T11:38:29;19.70;99.90
10468;DHT22;5281;48.878;9.394;2022-09-17T11:41:02;19.40;99.90
10468;DHT22;5281;48.878;9.394;2022-09-17T11:43:32;18.80;99.90
10468;DHT22;5281;48.878;9.394;2022-09-17T11:46:03;18.20;99.90
10468;DHT22;5281;48.878;9.394;2022-09-17T11:48:36;17.80;99.90
10468;DHT22;5281;48.878;9.394;2022-09-17T11:51:12;17.50;99.90
10468;DHT22;5281;48.878;9.394;2022-09-17T11:53:46;17.30;99.90
10468;DHT22;5281;48.878;9.394;2022-09-17T11:56:19;17.30;99.90
10468;DHT22;5281;48.878;9.394;2022-09-17T11:58:48;17.30;99.90
10468;DHT22;5281;48.878;9.394;2022-09-17T12:01:20;17.40;99.90
10468;DHT22;5281;48.878;9.394;2022-09-17T12:03:54;17.40;99.90
10468;DHT22;5281;48.878;9.394;2022-09-17T12:06:31;17.60;99.90
10468;DHT22;5281;48.878;9.394;2022-09-17T12:09:04;17.90;99.90
10468;DHT22;5281;48.878;9.394;2022-09-17T12:11:40;18.10;99.90
10468;DHT22;5281;48.878;9.394;2022-09-17T12:14:15;18.30;99.90
10468;DHT22;5281;48.878;9.394;2022-09-17T12:16:46;18.60;99.90
10468;DHT22;5281;48.878;9.394;2022-09-17T12:19:20;18.70;99.90
10468;DHT22;5281;48.878;9.394;2022-09-17T12:21:50;18.70;99.90
10468;DHT22;5281;48.878;9.394;2022-09-17T12:24:21;18.90;99.90
10468;DHT22;5281;48.878;9.394;2022-09-17T12:27:00;19.00;99.90
10468;DHT22;5281;48.878;9.394;2022-09-17T12:29:45;19.00;99.90
10468;DHT22;5281;48.878;9.394;2022-09-17T12:32:27;19.10;99.90
10468;DHT22;5281;48.878;9.394;2022-09-17T12:34:57;19.20;99.90
10468;DHT22;5281;48.878;9.394;2022-09-17T12:37:32;19.30;99.90
10468;DHT22;5281;48.878;9.394;2022-09-17T12:40:15;19.30;99.90
10468;DHT22;5281;48.878;9.394;2022-09-17T12:42:53;19.20;99.90
10468;DHT22;5281;48.878;9.394;2022-09-17T12:45:36;19.20;99.90
10468;DHT22;5281;48.878;9.394;2022-09-17T12:51:14;18.90;99.90
10468;DHT22;5281;48.878;9.394;2022-09-17T12:53:53;19.10;99.90
10468;DHT22;5281;48.878;9.394;2022-09-17T12:56:30;19.60;99.90
10468;DHT22;5281;48.878;9.394;2022-09-17T12:59:08;19.90;99.90
10468;DHT22;5281;48.878;9.394;2022-09-17T13:01:40;20.20;99.90
10468;DHT22;5281;48.878;9.394;2022-09-17T13:04:17;20.30;99.90
10468;DHT22;5281;48.878;9.394;2022-09-17T13:07:06;20.40;99.90
10468;DHT22;5281;48.878;9.394;2022-09-17T13:09:58;20.10;99.90
10468;DHT22;5281;48.878;9.394;2022-09-17T13:12:31;19.80;99.90
10468;DHT22;5281;48.878;9.394;2022-09-17T13:15:29;19.80;99.90
10468;DHT22;5281;48.878;9.394;2022-09-17T13:18:04;19.80;99.20
10468;DHT22;5281;48.878;9.394;2022-09-17T13:20:36;19.70;98.90
10468;DHT22;5281;48.878;9.394;2022-09-17T13:23:04;19.50;99.50
10468;DHT22;5281;48.878;9.394;2022-09-17T13:25:31;19.40;99.30
10468;DHT22;5281;48.878;9.394;2022-09-17T13:28:07;19.20;99.90
10468;DHT22;5281;48.878;9.394;2022-09-17T13:30:54;19.10;99.90
10468;DHT22;5281;48.878;9.394;2022-09-17T13:33:49;18.90;99.90
10468;DHT22;5281;48.878;9.394;2022-09-17T13:36:35;18.80;99.90
10468;DHT22;5281;48.878;9.394;2022-09-17T13:39:05;18.70;99.90
10468;DHT22;5281;48.878;9.394;2022-09-17T13:41:34;18.60;99.90
10468;DHT22;5281;48.878;9.394;2022-09-17T13:44:03;18.70;99.90
10468;DHT22;5281;48.878;9.394;2022-09-17T13:46:32;18.60;99.90
10468;DHT22;5281;48.878;9.394;2022-09-17T13:49:01;18.50;99.90
10468;DHT22;5281;48.878;9.394;2022-09-17T13:51:46;18.40;99.90
10468;DHT22;5281;48.878;9.394;2022-09-17T13:54:14;18.30;99.90
10468;DHT22;5281;48.878;9.394;2022-09-17T13:56:44;18.10;99.90
10468;DHT22;5281;48.878;9.394;2022-09-17T13:59:15;18.10;99.90
10468;DHT22;5281;48.878;9.394;2022-09-17T14:02:01;18.10;99.90
10468;DHT22;5281;48.878;9.394;2022-09-17T14:04:45;18.10;99.90
10468;DHT22;5281;48.878;9.394;2022-09-17T14:07:32;18.00;99.90
10468;DHT22;5281;48.878;9.394;2022-09-17T14:10:00;18.00;99.90
10468;DHT22;5281;48.878;9.394;2022-09-17T14:12:56;17.90;99.90
10468;DHT22;5281;48.878;9.394;2022-09-17T14:15:53;17.80;99.90
10468;DHT22;5281;48.878;9.394;2022-09-17T14:18:44;17.80;99.90
10468;DHT22;5281;48.878;9.394;2022-09-17T14:21:22;17.90;99.90
10468;DHT22;5281;48.878;9.394;2022-09-17T14:23:54;18.00;99.90
10468;DHT22;5281;48.878;9.394;2022-09-17T14:26:32;18.10;99.90
10468;DHT22;5281;48.878;9.394;2022-09-17T14:29:11;18.20;99.90
10468;DHT22;5281;48.878;9.394;2022-09-17T14:31:42;18.40;99.90
10468;DHT22;5281;48.878;9.394;2022-09-17T14:34:14;18.40;99.90
10468;DHT22;5281;48.878;9.394;2022-09-17T14:36:43;18.30;99.90
10468;DHT22;5281;48.878;9.394;2022-09-17T14:39:16;18.30;99.90
10468;DHT22;5281;48.878;9.394;2022-09-17T14:41:46;18.20;99.90
10468;DHT22;5281;48.878;9.394;2022-09-17T14:44:16;17.90;99.90
10468;DHT22;5281;48.878;9.394;2022-09-17T14:46:51;17.50;99.90
10468;DHT22;5281;48.878;9.394;2022-09-17T14:49:21;17.30;99.90
10468;DHT22;5281;48.878;9.394;2022-09-17T14:51:48;17.10;99.90
10468;DHT22;5281;48.878;9.394;2022-09-17T14:54:20;16.90;99.90
10468;DHT22;5281;48.878;9.394;2022-09-17T14:56:56;16.70;99.90
10468;DHT22;5281;48.878;9.394;2022-09-17T14:59:42;16.50;99.90
10468;DHT22;5281;48.878;9.394;2022-09-17T15:02:33;16.20;99.90
10468;DHT22;5281;48.878;9.394;2022-09-17T15:05:00;16.10;99.90
10468;DHT22;5281;48.878;9.394;2022-09-17T15:07:28;16.00;99.90
10468;DHT22;5281;48.878;9.394;2022-09-17T15:10:05;16.10;99.90
10468;DHT22;5281;48.878;9.394;2022-09-17T15:12:33;16.30;99.90
10468;DHT22;5281;48.878;9.394;2022-09-17T15:15:00;16.30;99.90
10468;DHT22;5281;48.878;9.394;2022-09-17T15:17:29;16.20;99.90
10468;DHT22;5281;48.878;9.394;2022-09-17T15:19:58;16.50;99.90
10468;DHT22;5281;48.878;9.394;2022-09-17T15:22:31;16.60;99.90
10468;DHT22;5281;48.878;9.394;2022-09-17T15:25:02;16.70;99.90
10468;DHT22;5281;48.878;9.394;2022-09-17T15:27:33;16.70;99.90
10468;DHT22;5281;48.878;9.394;2022-09-17T15:30:02;16.70;99.90
10468;DHT22;5281;48.878;9.394;2022-09-17T15:32:31;16.70;99.90
10468;DHT22;5281;48.878;9.394;2022-09-17T15:35:29;16.80;99.90
10468;DHT22;5281;48.878;9.394;2022-09-17T15:37:57;17.10;99.90
10468;DHT22;5281;48.878;9.394;2022-09-17T15:40:28;17.10;99.90
10468;DHT22;5281;48.878;9.394;2022-09-17T15:43:05;17.10;99.90
10468;DHT22;5281;48.878;9.394;2022-09-17T15:45:38;17.10;99.90
10468;DHT22;5281;48.878;9.394;2022-09-17T15:48:21;16.90;99.90
10468;DHT22;5281;48.878;9.394;2022-09-17T15:50:50;16.80;99.90
10468;DHT22;5281;48.878;9.394;2022-09-17T15:53:22;16.60;99.90
10468;DHT22;5281;48.878;9.394;2022-09-17T15:56:05;16.50;99.90
10468;DHT22;5281;48.878;9.394;2022-09-17T15:58:36;16.60;99.90
10468;DHT22;5281;48.878;9.394;2022-09-17T16:04:25;16.90;99.90
10468;DHT22;5281;48.878;9.394;2022-09-17T16:09:45;17.10;99.90
10468;DHT22;5281;48.878;9.394;2022-09-17T16:12:15;17.20;99.90
10468;DHT22;5281;48.878;9.394;2022-09-17T16:14:46;17.20;99.90
10468;DHT22;5281;48.878;9.394;2022-09-17T16:17:29;17.10;99.90
10468;DHT22;5281;48.878;9.394;2022-09-17T16:19:59;16.80;99.90
10468;DHT22;5281;48.878;9.394;2022-09-17T16:22:26;16.50;99.90
10468;DHT22;5281;48.878;9.394;2022-09-17T16:24:54;16.20;99.90
10468;DHT22;5281;48.878;9.394;2022-09-17T16:27:23;16.10;99.90
10468;DHT22;5281;48.878;9.394;2022-09-17T16:29:59;16.00;99.90
10468;DHT22;5281;48.878;9.394;2022-09-17T16:32:26;15.90;99.90
10468;DHT22;5281;48.878;9.394;2022-09-17T16:34:53;15.80;99.90
10468;DHT22;5281;48.878;9.394;2022-09-17T16:37:21;15.70;99.90
10468;DHT22;5281;48.878;9.394;2022-09-17T16:39:49;15.50;99.90
10468;DHT22;5281;48.878;9.394;2022-09-17T16:42:17;15.50;99.90